createdAt,value
2022-11-02T08:57:56.968Z,25.58
2022-11-02T09:00:46.695Z,27.55
2022-11-02T09:03:36.112Z,28.77
2022-11-02T09:06:25.234Z,27.98
2022-11-02T09:09:14.124Z,26.85
2022-11-02T09:12:03.160Z,25.60
2022-11-02T09:14:54.075Z,25.65
2022-11-02T09:17:43.684Z,26.42
2022-11-02T09:20:33.187Z,24.10
2022-11-02T09:23:23.332Z,24.90
2022-11-02T09:26:12.951Z,21.05
2022-11-02T09:29:02.601Z,23.33
2022-11-02T09:31:53.667Z,22.23
2022-11-02T09:34:43.054Z,23.45
2022-11-02T09:37:32.839Z,23.20
2022-11-02T09:40:23.924Z,23.88
2022-11-02T09:43:22.047Z,22.23
2022-11-02T09:46:14.997Z,22.65
2022-11-02T09:49:08.443Z,25.08
2022-11-02T09:51:59.234Z,22.42
2022-11-02T09:54:53.456Z,22.05
2022-11-02T09:57:46.638Z,24.40
2022-11-02T10:00:40.943Z,23.52
2022-11-02T10:03:40.814Z,23.83
2022-11-02T10:06:33.337Z,24.25
2022-11-02T10:09:29.559Z,23.73
2022-11-02T10:12:26.448Z,21.02
2022-11-02T10:15:20.972Z,22.45
2022-11-02T10:18:17.909Z,25.58
2022-11-02T10:21:09.840Z,25.33
2022-11-02T10:24:05.364Z,23.98
2022-11-02T10:26:58.201Z,23.65
2022-11-02T10:29:55.300Z,23.65
2022-11-02T10:32:46.331Z,23.95
2022-11-02T10:36:04.861Z,24.30
2022-11-02T10:39:07.005Z,21.83
2022-11-02T10:42:18.684Z,25.70
2022-11-02T10:45:34.234Z,22.13
2022-11-02T10:48:34.331Z,22.75
2022-11-02T10:51:24.943Z,21.75
2022-11-02T10:54:21.574Z,23.98
2022-11-02T10:57:24.307Z,25.58
2022-11-02T11:00:31.632Z,23.38
2022-11-02T11:03:21.302Z,24.83
2022-11-02T11:06:13.865Z,25.35
2022-11-02T11:09:06.742Z,24.13
2022-11-02T11:12:00.563Z,24.42
2022-11-02T11:21:20.323Z,26.70
2022-11-02T11:24:27.989Z,22.27
2022-11-02T11:27:21.024Z,24.10
2022-11-02T11:30:58.218Z,25.67
2022-11-02T11:33:43.216Z,23.77
2022-11-02T11:36:34.937Z,22.85
2022-11-02T11:39:29.385Z,24.45
2022-11-02T11:42:23.946Z,25.83
2022-11-02T11:45:21.755Z,23.67
2022-11-02T11:48:26.619Z,24.10
2022-11-02T11:51:30.276Z,22.95
2022-11-02T11:54:23.865Z,22.50
2022-11-02T11:57:25.519Z,22.63
2022-11-02T12:00:28.756Z,24.52
2022-11-02T12:03:18.337Z,25.23
2022-11-02T12:06:11.024Z,23.73
2022-11-02T12:09:04.574Z,23.45
2022-11-02T12:11:56.775Z,22.98
2022-11-02T12:14:54.831Z,23.15
2022-11-02T12:17:50.084Z,26.17
2022-11-02T12:20:53.257Z,23.75
2022-11-02T12:23:54.977Z,24.00
2022-11-02T12:26:58.342Z,26.13
2022-11-02T12:30:08.225Z,26.27
2022-11-02T12:33:10.092Z,22.67
2022-11-02T12:36:12.533Z,22.88
2022-11-02T12:39:09.558Z,20.77
2022-11-02T12:42:12.870Z,21.15
2022-11-02T12:45:21.605Z,22.02
2022-11-02T12:48:20.926Z,22.23
2022-11-02T12:51:14.160Z,22.20
2022-11-02T12:54:11.929Z,21.38
2022-11-02T12:57:01.632Z,22.83
2022-11-02T12:59:55.180Z,21.15
2022-11-02T13:02:56.866Z,20.80
2022-11-02T13:05:51.244Z,20.60
2022-11-02T13:08:46.541Z,21.35
2022-11-02T13:11:39.641Z,21.13
2022-11-02T13:14:36.242Z,21.77
2022-11-02T13:17:28.905Z,22.50
2022-11-02T13:20:23.856Z,24.73
2022-11-02T13:23:19.727Z,21.52
2022-11-02T13:26:27.022Z,21.00
2022-11-02T13:29:20.711Z,21.42
2022-11-02T13:32:15.818Z,20.10
2022-11-02T13:35:16.910Z,20.55
2022-11-02T13:38:25.407Z,19.77
2022-11-02T13:41:31.069Z,19.42
2022-11-02T13:44:55.655Z,17.48
2022-11-02T13:48:06.468Z,17.33
2022-11-02T13:50:59.484Z,17.10
2022-11-02T13:53:57.375Z,18.40
2022-11-02T13:56:48.678Z,16.35
2022-11-02T13:59:43.204Z,17.30
2022-11-02T14:02:38.089Z,18.42
2022-11-02T14:05:30.529Z,16.98
2022-11-02T14:08:28.385Z,17.45
2022-11-02T14:11:37.205Z,19.30
2022-11-02T14:14:26.733Z,19.15
2022-11-02T14:17:17.452Z,18.00
2022-11-02T14:20:34.226Z,18.17
2022-11-02T14:23:38.295Z,17.98
2022-11-02T14:26:56.264Z,18.67
2022-11-02T14:29:54.284Z,17.75
2022-11-02T14:32:53.097Z,18.85
2022-11-02T14:35:46.184Z,17.50
2022-11-02T14:38:58.445Z,17.05
2022-11-02T14:42:35.031Z,15.52
2022-11-02T14:45:37.945Z,15.70
2022-11-02T14:48:32.351Z,17.10
2022-11-02T14:51:25.103Z,18.33
2022-11-02T14:54:19.717Z,16.40
2022-11-02T14:57:19.994Z,18.02
2022-11-02T15:00:21.207Z,17.27
2022-11-02T15:03:34.467Z,22.00
2022-11-02T15:06:26.507Z,20.17
2022-11-02T15:09:35.630Z,19.45
2022-11-02T15:12:38.594Z,19.17
2022-11-02T15:15:34.811Z,18.73
2022-11-02T15:18:32.878Z,17.17
2022-11-02T15:21:40.863Z,18.33
2022-11-02T15:24:31.959Z,17.60
2022-11-02T15:27:22.946Z,17.17
2022-11-02T15:30:16.223Z,17.75
2022-11-02T15:33:07.461Z,16.88
2022-11-02T15:35:57.304Z,18.13
2022-11-02T15:38:53.388Z,19.35
2022-11-02T15:41:47.051Z,18.58
2022-11-02T15:45:14.104Z,18.15
2022-11-02T15:48:26.979Z,18.10
2022-11-02T15:51:25.289Z,18.13
2022-11-02T15:54:34.955Z,18.13
2022-11-02T15:57:40.619Z,20.40
2022-11-02T16:00:33.127Z,17.92
2022-11-02T16:03:22.632Z,18.70
2022-11-02T16:06:12.296Z,18.77
2022-11-02T16:09:05.273Z,18.50
2022-11-02T16:12:05.475Z,18.95
2022-11-02T16:14:57.902Z,18.67
2022-11-02T16:17:49.815Z,18.45
2022-11-02T16:20:41.206Z,19.05
2022-11-02T16:23:32.189Z,19.40
2022-11-02T16:26:23.605Z,18.75
2022-11-02T16:29:27.311Z,19.83
2022-11-02T16:32:17.511Z,19.92
2022-11-02T16:35:07.377Z,17.40
2022-11-02T16:37:58.809Z,20.67
2022-11-02T16:40:47.881Z,21.67
2022-11-02T16:43:42.982Z,21.15
2022-11-02T16:46:44.489Z,19.35
2022-11-02T16:49:35.475Z,19.88
2022-11-02T16:52:27.305Z,20.15
2022-11-02T16:55:39.784Z,19.65
2022-11-02T16:58:30.062Z,19.33
2022-11-02T17:01:24.046Z,20.75
2022-11-02T17:04:21.457Z,20.57
2022-11-02T17:07:15.831Z,20.20
2022-11-02T17:10:07.213Z,18.23
2022-11-02T17:12:58.306Z,18.42
2022-11-02T17:15:50.362Z,19.75
2022-11-02T17:18:39.700Z,20.35
2022-11-02T17:21:31.653Z,19.35
2022-11-02T17:24:35.637Z,20.88
2022-11-02T17:27:26.840Z,20.63
2022-11-02T17:30:46.484Z,20.70
2022-11-02T17:33:35.144Z,20.15
2022-11-02T17:36:27.307Z,20.98
2022-11-02T17:39:19.091Z,20.88
2022-11-02T17:42:28.183Z,21.98
2022-11-02T17:45:37.694Z,21.95
2022-11-02T17:48:29.111Z,23.40
2022-11-02T17:51:19.778Z,32.88
2022-11-02T17:54:10.783Z,27.15
2022-11-02T17:57:03.130Z,21.25
2022-11-02T17:59:52.678Z,20.55
2022-11-02T18:02:41.628Z,20.48
2022-11-02T18:05:31.643Z,21.00
2022-11-02T18:08:20.768Z,20.27
2022-11-02T18:11:10.779Z,21.23
2022-11-02T18:14:01.608Z,21.20
2022-11-02T18:16:52.918Z,20.67
2022-11-02T18:19:42.122Z,20.27
2022-11-02T18:22:31.870Z,20.13
2022-11-02T18:28:15.792Z,19.85
2022-11-02T18:31:07.075Z,21.73
2022-11-02T18:33:56.806Z,20.90
2022-11-02T18:36:46.162Z,19.92
2022-11-02T18:39:35.648Z,20.27
2022-11-02T18:42:24.351Z,20.48
2022-11-02T18:45:16.180Z,21.05
2022-11-02T18:48:07.825Z,20.92
2022-11-02T18:50:57.709Z,22.17
2022-11-02T18:53:46.801Z,19.80
2022-11-02T18:56:36.169Z,20.40
2022-11-02T18:59:25.627Z,20.90
2022-11-02T19:02:15.857Z,20.77
2022-11-02T19:05:28.637Z,20.52
2022-11-02T19:08:35.167Z,19.77
2022-11-02T19:11:24.773Z,21.48
2022-11-02T19:14:14.053Z,20.40
2022-11-02T19:17:03.973Z,22.13
2022-11-02T19:19:52.986Z,20.35
2022-11-02T19:22:43.692Z,22.60
2022-11-02T19:25:32.842Z,20.70
2022-11-02T19:28:22.440Z,22.92
2022-11-02T19:31:11.199Z,21.23
2022-11-02T19:34:01.579Z,19.98
2022-11-02T19:36:51.694Z,21.05
2022-11-02T19:39:42.667Z,19.38
2022-11-02T19:42:32.060Z,20.48
2022-11-02T19:45:21.823Z,22.35
2022-11-02T19:48:11.043Z,21.80
2022-11-02T19:51:07.592Z,21.40
2022-11-02T19:53:58.111Z,20.50
2022-11-02T19:56:48.958Z,22.55
2022-11-02T19:59:38.401Z,22.63
2022-11-02T20:02:27.943Z,23.00
2022-11-02T20:05:17.268Z,21.45
2022-11-02T20:08:07.252Z,23.88
2022-11-02T20:11:02.660Z,23.08
2022-11-02T21:26:01.173Z,23.35
2022-11-02T21:28:50.683Z,26.63
2022-11-02T21:31:39.933Z,26.83
2022-11-02T21:34:29.149Z,24.45
2022-11-02T21:37:18.535Z,25.92
2022-11-02T21:40:09.098Z,26.52
2022-11-02T21:42:59.601Z,26.42
2022-11-02T21:45:53.492Z,25.60
2022-11-02T21:48:42.755Z,24.40
2022-11-02T21:51:31.670Z,23.52
2022-11-02T21:54:20.957Z,25.05
2022-11-02T21:57:09.985Z,26.65
2022-11-02T22:00:00.641Z,26.83
2022-11-02T22:02:50.215Z,25.08
2022-11-02T22:05:59.552Z,27.45
2022-11-02T22:08:48.867Z,25.27
2022-11-02T22:11:38.153Z,28.38
2022-11-02T22:14:27.446Z,25.27
2022-11-02T22:17:43.221Z,23.13
2022-11-02T22:20:28.045Z,27.98
2022-11-02T22:23:16.858Z,28.13
2022-11-02T22:26:07.555Z,30.58
2022-11-02T22:28:58.408Z,27.27
2022-11-02T22:31:47.701Z,28.67
2022-11-02T22:34:38.557Z,29.63
2022-11-02T22:37:45.123Z,27.52
2022-11-02T22:40:34.170Z,28.48
2022-11-02T22:43:22.928Z,29.00
2022-11-02T22:46:12.867Z,29.95
2022-11-02T22:49:02.886Z,30.45
2022-11-02T22:51:53.485Z,30.17
2022-11-02T22:54:42.590Z,30.92
2022-11-02T22:57:31.697Z,32.25
2022-11-02T23:00:21.242Z,34.15
2022-11-02T23:03:10.736Z,32.33
2022-11-02T23:06:00.010Z,34.22
2022-11-02T23:08:51.342Z,32.10
2022-11-02T23:11:40.939Z,33.08
2022-11-02T23:14:29.874Z,34.17
2022-11-02T23:17:18.977Z,33.58
2022-11-02T23:20:07.725Z,32.90
2022-11-02T23:23:17.638Z,33.38
2022-11-02T23:26:08.456Z,33.30
2022-11-02T23:29:23.885Z,32.50
2022-11-02T23:32:29.700Z,34.33
2022-11-02T23:35:36.563Z,35.70
2022-11-02T23:38:46.068Z,33.90
2022-11-02T23:41:39.033Z,34.05
2022-11-02T23:44:29.433Z,35.05
2022-11-02T23:47:18.704Z,39.10
2022-11-02T23:50:08.626Z,41.08
2022-11-02T23:53:20.668Z,39.20
2022-11-02T23:56:33.387Z,36.83
2022-11-02T23:59:24.307Z,37.92
